sensor_id;sensor_type;location;lat;lon;timestamp;P1;durP1;ratioP1;P2;durP2;ratioP2
12212;SDS011;6169;44.158;22.788;2023-11-19T00:02:17;2.70;;;1.60;;
12212;SDS011;6169;44.158;22.788;2023-11-19T00:07:19;1.93;;;1.30;;
12212;SDS011;6169;44.158;22.788;2023-11-19T00:12:21;1.60;;;1.07;;
12212;SDS011;6169;44.158;22.788;2023-11-19T00:17:26;3.17;;;1.63;;
12212;SDS011;6169;44.158;22.788;2023-11-19T00:22:28;1.10;;;0.87;;
12212;SDS011;6169;44.158;22.788;2023-11-19T00:27:31;2.83;;;1.70;;
12212;SDS011;6169;44.158;22.788;2023-11-19T00:32:35;2.20;;;1.50;;
12212;SDS011;6169;44.158;22.788;2023-11-19T00:37:39;2.00;;;1.30;;
12212;SDS011;6169;44.158;22.788;2023-11-19T00:42:42;2.13;;;1.50;;
12212;SDS011;6169;44.158;22.788;2023-11-19T00:47:46;2.43;;;1.90;;
12212;SDS011;6169;44.158;22.788;2023-11-19T00:52:49;1.03;;;0.90;;
12212;SDS011;6169;44.158;22.788;2023-11-19T00:57:51;1.83;;;1.40;;
12212;SDS011;6169;44.158;22.788;2023-11-19T01:02:58;2.23;;;1.43;;
12212;SDS011;6169;44.158;22.788;2023-11-19T01:08:00;1.53;;;1.40;;
12212;SDS011;6169;44.158;22.788;2023-11-19T01:13:04;1.30;;;1.10;;
12212;SDS011;6169;44.158;22.788;2023-11-19T01:18:08;2.10;;;1.43;;
12212;SDS011;6169;44.158;22.788;2023-11-19T01:23:11;2.17;;;2.00;;
12212;SDS011;6169;44.158;22.788;2023-11-19T01:28:13;2.13;;;1.40;;
12212;SDS011;6169;44.158;22.788;2023-11-19T01:33:17;1.17;;;1.07;;
12212;SDS011;6169;44.158;22.788;2023-11-19T01:38:20;1.50;;;1.40;;
12212;SDS011;6169;44.158;22.788;2023-11-19T01:43:32;3.47;;;1.90;;
12212;SDS011;6169;44.158;22.788;2023-11-19T01:48:38;2.27;;;0.80;;
12212;SDS011;6169;44.158;22.788;2023-11-19T01:53:45;2.10;;;1.58;;
12212;SDS011;6169;44.158;22.788;2023-11-19T01:58:47;2.30;;;1.60;;
12212;SDS011;6169;44.158;22.788;2023-11-19T02:03:53;3.40;;;1.40;;
12212;SDS011;6169;44.158;22.788;2023-11-19T02:08:55;3.43;;;1.73;;
12212;SDS011;6169;44.158;22.788;2023-11-19T02:13:57;2.40;;;1.80;;
12212;SDS011;6169;44.158;22.788;2023-11-19T02:19:01;1.77;;;1.60;;
12212;SDS011;6169;44.158;22.788;2023-11-19T02:24:06;3.43;;;2.50;;
12212;SDS011;6169;44.158;22.788;2023-11-19T02:29:14;4.03;;;2.03;;
12212;SDS011;6169;44.158;22.788;2023-11-19T02:34:16;3.83;;;2.20;;
12212;SDS011;6169;44.158;22.788;2023-11-19T02:39:18;2.50;;;2.00;;
12212;SDS011;6169;44.158;22.788;2023-11-19T02:44:23;2.23;;;1.90;;
12212;SDS011;6169;44.158;22.788;2023-11-19T02:49:28;3.97;;;3.30;;
12212;SDS011;6169;44.158;22.788;2023-11-19T02:54:31;2.60;;;2.33;;
12212;SDS011;6169;44.158;22.788;2023-11-19T02:59:38;3.43;;;2.50;;
12212;SDS011;6169;44.158;22.788;2023-11-19T03:04:43;3.73;;;2.57;;
12212;SDS011;6169;44.158;22.788;2023-11-19T03:09:45;3.80;;;2.43;;
12212;SDS011;6169;44.158;22.788;2023-11-19T03:14:51;4.77;;;2.57;;
12212;SDS011;6169;44.158;22.788;2023-11-19T03:19:53;4.57;;;2.77;;
12212;SDS011;6169;44.158;22.788;2023-11-19T03:24:56;4.37;;;2.57;;
12212;SDS011;6169;44.158;22.788;2023-11-19T03:30:00;5.73;;;3.00;;
12212;SDS011;6169;44.158;22.788;2023-11-19T03:35:03;3.67;;;2.10;;
12212;SDS011;6169;44.158;22.788;2023-11-19T03:40:07;4.57;;;3.57;;
12212;SDS011;6169;44.158;22.788;2023-11-19T03:45:12;4.03;;;2.70;;
12212;SDS011;6169;44.158;22.788;2023-11-19T03:50:16;5.27;;;3.33;;
12212;SDS011;6169;44.158;22.788;2023-11-19T03:55:20;3.13;;;2.83;;
12212;SDS011;6169;44.158;22.788;2023-11-19T04:00:24;2.50;;;2.30;;
12212;SDS011;6169;44.158;22.788;2023-11-19T04:05:28;4.33;;;2.97;;
12212;SDS011;6169;44.158;22.788;2023-11-19T04:10:30;3.43;;;2.67;;
12212;SDS011;6169;44.158;22.788;2023-11-19T04:15:34;3.67;;;2.67;;
12212;SDS011;6169;44.158;22.788;2023-11-19T04:20:36;4.73;;;2.33;;
12212;SDS011;6169;44.158;22.788;2023-11-19T04:25:39;3.53;;;2.73;;
12212;SDS011;6169;44.158;22.788;2023-11-19T04:30:43;4.60;;;2.87;;
12212;SDS011;6169;44.158;22.788;2023-11-19T04:35:45;4.07;;;2.40;;
12212;SDS011;6169;44.158;22.788;2023-11-19T04:40:48;5.00;;;3.20;;
12212;SDS011;6169;44.158;22.788;2023-11-19T04:45:52;3.97;;;3.00;;
12212;SDS011;6169;44.158;22.788;2023-11-19T04:50:54;2.43;;;1.87;;
12212;SDS011;6169;44.158;22.788;2023-11-19T04:55:56;2.93;;;2.67;;
12212;SDS011;6169;44.158;22.788;2023-11-19T05:01:01;4.50;;;3.00;;
12212;SDS011;6169;44.158;22.788;2023-11-19T05:06:04;5.10;;;3.33;;
12212;SDS011;6169;44.158;22.788;2023-11-19T05:11:07;4.87;;;3.13;;
12212;SDS011;6169;44.158;22.788;2023-11-19T05:16:13;6.10;;;3.70;;
12212;SDS011;6169;44.158;22.788;2023-11-19T05:21:16;4.33;;;3.30;;
12212;SDS011;6169;44.158;22.788;2023-11-19T05:26:19;4.27;;;3.37;;
12212;SDS011;6169;44.158;22.788;2023-11-19T05:31:23;4.87;;;3.83;;
12212;SDS011;6169;44.158;22.788;2023-11-19T05:36:26;3.90;;;3.20;;
12212;SDS011;6169;44.158;22.788;2023-11-19T05:41:29;4.87;;;3.23;;
12212;SDS011;6169;44.158;22.788;2023-11-19T05:46:33;5.77;;;4.00;;
12212;SDS011;6169;44.158;22.788;2023-11-19T05:51:40;7.00;;;4.13;;
12212;SDS011;6169;44.158;22.788;2023-11-19T05:56:47;4.80;;;3.67;;
12212;SDS011;6169;44.158;22.788;2023-11-19T06:01:51;5.10;;;4.37;;
12212;SDS011;6169;44.158;22.788;2023-11-19T06:06:53;4.53;;;3.07;;
12212;SDS011;6169;44.158;22.788;2023-11-19T06:11:56;4.70;;;3.63;;
12212;SDS011;6169;44.158;22.788;2023-11-19T06:17:00;4.13;;;3.80;;
12212;SDS011;6169;44.158;22.788;2023-11-19T06:22:05;4.27;;;3.40;;
12212;SDS011;6169;44.158;22.788;2023-11-19T06:27:07;5.17;;;4.30;;
12212;SDS011;6169;44.158;22.788;2023-11-19T06:32:11;3.80;;;3.43;;
12212;SDS011;6169;44.158;22.788;2023-11-19T06:37:13;5.07;;;4.57;;
12212;SDS011;6169;44.158;22.788;2023-11-19T06:42:16;3.57;;;3.00;;
12212;SDS011;6169;44.158;22.788;2023-11-19T06:47:20;3.67;;;3.17;;
12212;SDS011;6169;44.158;22.788;2023-11-19T06:52:23;7.47;;;4.30;;
12212;SDS011;6169;44.158;22.788;2023-11-19T06:57:25;3.60;;;3.10;;
12212;SDS011;6169;44.158;22.788;2023-11-19T07:02:31;5.13;;;3.20;;
12212;SDS011;6169;44.158;22.788;2023-11-19T07:07:33;5.40;;;2.53;;
12212;SDS011;6169;44.158;22.788;2023-11-19T07:12:36;4.40;;;3.00;;
12212;SDS011;6169;44.158;22.788;2023-11-19T07:17:40;3.60;;;2.90;;
12212;SDS011;6169;44.158;22.788;2023-11-19T07:22:44;3.80;;;2.67;;
12212;SDS011;6169;44.158;22.788;2023-11-19T07:27:46;4.03;;;2.70;;
12212;SDS011;6169;44.158;22.788;2023-11-19T07:32:51;3.37;;;3.00;;
12212;SDS011;6169;44.158;22.788;2023-11-19T07:37:53;4.63;;;3.50;;
12212;SDS011;6169;44.158;22.788;2023-11-19T07:42:55;2.33;;;1.70;;
12212;SDS011;6169;44.158;22.788;2023-11-19T07:47:59;4.20;;;3.60;;
12212;SDS011;6169;44.158;22.788;2023-11-19T07:53:03;2.50;;;2.00;;
12212;SDS011;6169;44.158;22.788;2023-11-19T07:58:05;2.70;;;2.20;;
12212;SDS011;6169;44.158;22.788;2023-11-19T08:03:09;3.00;;;2.70;;
12212;SDS011;6169;44.158;22.788;2023-11-19T08:08:11;3.20;;;2.47;;
12212;SDS011;6169;44.158;22.788;2023-11-19T08:13:14;2.83;;;2.50;;
12212;SDS011;6169;44.158;22.788;2023-11-19T08:18:18;4.43;;;3.50;;
12212;SDS011;6169;44.158;22.788;2023-11-19T08:23:20;4.70;;;2.47;;
12212;SDS011;6169;44.158;22.788;2023-11-19T08:28:24;7.55;;;4.95;;
12212;SDS011;6169;44.158;22.788;2023-11-19T08:33:29;7.35;;;4.38;;
12212;SDS011;6169;44.158;22.788;2023-11-19T08:38:32;12.68;;;6.35;;
12212;SDS011;6169;44.158;22.788;2023-11-19T08:43:34;3.55;;;2.80;;
12212;SDS011;6169;44.158;22.788;2023-11-19T08:48:38;4.47;;;2.92;;
12212;SDS011;6169;44.158;22.788;2023-11-19T08:53:41;3.05;;;2.10;;
12212;SDS011;6169;44.158;22.788;2023-11-19T08:58:43;4.28;;;3.83;;
12212;SDS011;6169;44.158;22.788;2023-11-19T09:03:47;10.75;;;7.53;;
12212;SDS011;6169;44.158;22.788;2023-11-19T09:08:49;4.15;;;3.50;;
12212;SDS011;6169;44.158;22.788;2023-11-19T09:13:52;7.20;;;5.63;;
12212;SDS011;6169;44.158;22.788;2023-11-19T09:18:56;13.60;;;8.60;;
12212;SDS011;6169;44.158;22.788;2023-11-19T09:23:59;5.97;;;4.90;;
12212;SDS011;6169;44.158;22.788;2023-11-19T09:29:02;6.03;;;4.63;;
12212;SDS011;6169;44.158;22.788;2023-11-19T09:34:05;7.90;;;5.95;;
12212;SDS011;6169;44.158;22.788;2023-11-19T09:39:08;16.08;;;9.13;;
12212;SDS011;6169;44.158;22.788;2023-11-19T09:44:10;4.22;;;3.83;;
12212;SDS011;6169;44.158;22.788;2023-11-19T09:49:14;4.38;;;3.55;;
12212;SDS011;6169;44.158;22.788;2023-11-19T09:54:23;4.68;;;3.78;;
12212;SDS011;6169;44.158;22.788;2023-11-19T09:59:25;3.35;;;2.50;;
12212;SDS011;6169;44.158;22.788;2023-11-19T10:04:30;4.15;;;2.92;;
12212;SDS011;6169;44.158;22.788;2023-11-19T10:09:37;7.82;;;3.70;;
12212;SDS011;6169;44.158;22.788;2023-11-19T10:14:39;4.47;;;3.30;;
12212;SDS011;6169;44.158;22.788;2023-11-19T10:19:44;6.05;;;3.45;;
12212;SDS011;6169;44.158;22.788;2023-11-19T10:24:47;5.18;;;3.03;;
12212;SDS011;6169;44.158;22.788;2023-11-19T10:29:49;5.38;;;3.88;;
12212;SDS011;6169;44.158;22.788;2023-11-19T10:34:53;5.55;;;3.80;;
12212;SDS011;6169;44.158;22.788;2023-11-19T10:40:07;2.63;;;2.42;;
12212;SDS011;6169;44.158;22.788;2023-11-19T10:45:21;5.72;;;3.22;;
12212;SDS011;6169;44.158;22.788;2023-11-19T10:50:26;5.05;;;3.92;;
12212;SDS011;6169;44.158;22.788;2023-11-19T10:55:30;3.40;;;3.10;;
12212;SDS011;6169;44.158;22.788;2023-11-19T11:00:34;4.05;;;2.97;;
12212;SDS011;6169;44.158;22.788;2023-11-19T11:05:42;7.50;;;3.47;;
12212;SDS011;6169;44.158;22.788;2023-11-19T11:10:45;3.88;;;2.92;;
12212;SDS011;6169;44.158;22.788;2023-11-19T11:15:51;8.15;;;4.95;;
12212;SDS011;6169;44.158;22.788;2023-11-19T11:20:59;5.28;;;3.35;;
12212;SDS011;6169;44.158;22.788;2023-11-19T11:26:18;4.65;;;3.33;;
12212;SDS011;6169;44.158;22.788;2023-11-19T11:31:38;4.85;;;2.83;;
12212;SDS011;6169;44.158;22.788;2023-11-19T11:36:53;5.60;;;4.60;;
12212;SDS011;6169;44.158;22.788;2023-11-19T11:53:19;3.17;;;2.92;;
12212;SDS011;6169;44.158;22.788;2023-11-19T11:58:25;5.85;;;4.25;;
12212;SDS011;6169;44.158;22.788;2023-11-19T12:03:31;5.15;;;3.22;;
12212;SDS011;6169;44.158;22.788;2023-11-19T12:08:35;4.65;;;3.28;;
12212;SDS011;6169;44.158;22.788;2023-11-19T12:13:53;3.85;;;2.90;;
12212;SDS011;6169;44.158;22.788;2023-11-19T12:19:02;6.22;;;4.03;;
12212;SDS011;6169;44.158;22.788;2023-11-19T12:24:08;11.18;;;8.10;;
12212;SDS011;6169;44.158;22.788;2023-11-19T12:29:11;9.38;;;5.40;;
12212;SDS011;6169;44.158;22.788;2023-11-19T12:34:14;33.13;;;16.52;;
12212;SDS011;6169;44.158;22.788;2023-11-19T12:39:18;42.97;;;21.20;;
12212;SDS011;6169;44.158;22.788;2023-11-19T12:44:21;56.65;;;32.20;;
12212;SDS011;6169;44.158;22.788;2023-11-19T12:49:23;15.75;;;10.18;;
12212;SDS011;6169;44.158;22.788;2023-11-19T12:54:34;11.95;;;6.95;;
12212;SDS011;6169;44.158;22.788;2023-11-19T12:59:37;22.27;;;14.05;;
12212;SDS011;6169;44.158;22.788;2023-11-19T13:04:39;7.55;;;5.45;;
12212;SDS011;6169;44.158;22.788;2023-11-19T13:09:44;11.00;;;6.13;;
12212;SDS011;6169;44.158;22.788;2023-11-19T13:14:47;6.78;;;3.30;;
12212;SDS011;6169;44.158;22.788;2023-11-19T13:19:50;4.20;;;3.10;;
12212;SDS011;6169;44.158;22.788;2023-11-19T13:24:54;7.28;;;3.92;;
12212;SDS011;6169;44.158;22.788;2023-11-19T13:29:56;8.23;;;6.40;;
12212;SDS011;6169;44.158;22.788;2023-11-19T13:34:59;5.47;;;4.22;;
12212;SDS011;6169;44.158;22.788;2023-11-19T13:40:06;5.93;;;4.20;;
12212;SDS011;6169;44.158;22.788;2023-11-19T13:45:10;4.22;;;3.25;;
12212;SDS011;6169;44.158;22.788;2023-11-19T13:50:14;4.78;;;3.03;;
12212;SDS011;6169;44.158;22.788;2023-11-19T13:55:18;4.68;;;3.05;;
12212;SDS011;6169;44.158;22.788;2023-11-19T14:00:22;3.35;;;2.92;;
12212;SDS011;6169;44.158;22.788;2023-11-19T14:05:25;4.13;;;3.10;;
12212;SDS011;6169;44.158;22.788;2023-11-19T14:10:29;3.33;;;2.45;;
12212;SDS011;6169;44.158;22.788;2023-11-19T14:15:31;3.40;;;2.90;;
12212;SDS011;6169;44.158;22.788;2023-11-19T14:20:33;3.63;;;2.80;;
12212;SDS011;6169;44.158;22.788;2023-11-19T14:25:38;8.48;;;5.63;;
12212;SDS011;6169;44.158;22.788;2023-11-19T14:30:40;3.85;;;2.55;;
12212;SDS011;6169;44.158;22.788;2023-11-19T14:35:44;4.97;;;3.15;;
12212;SDS011;6169;44.158;22.788;2023-11-19T14:40:48;5.65;;;3.10;;
12212;SDS011;6169;44.158;22.788;2023-11-19T14:45:51;6.30;;;4.22;;
12212;SDS011;6169;44.158;22.788;2023-11-19T14:50:53;5.18;;;3.60;;
12212;SDS011;6169;44.158;22.788;2023-11-19T14:55:57;4.30;;;3.53;;
12212;SDS011;6169;44.158;22.788;2023-11-19T15:00:59;4.85;;;3.00;;
12212;SDS011;6169;44.158;22.788;2023-11-19T15:06:05;4.30;;;3.85;;
12212;SDS011;6169;44.158;22.788;2023-11-19T15:11:09;3.08;;;2.78;;
12212;SDS011;6169;44.158;22.788;2023-11-19T15:16:12;3.40;;;2.35;;
12212;SDS011;6169;44.158;22.788;2023-11-19T15:21:14;3.05;;;2.40;;
12212;SDS011;6169;44.158;22.788;2023-11-19T15:26:18;6.13;;;2.60;;
12212;SDS011;6169;44.158;22.788;2023-11-19T15:31:21;4.05;;;2.45;;
12212;SDS011;6169;44.158;22.788;2023-11-19T15:36:23;3.45;;;2.53;;
12212;SDS011;6169;44.158;22.788;2023-11-19T15:41:27;3.95;;;2.83;;
12212;SDS011;6169;44.158;22.788;2023-11-19T15:46:30;6.95;;;4.18;;
12212;SDS011;6169;44.158;22.788;2023-11-19T15:51:33;4.55;;;2.83;;
12212;SDS011;6169;44.158;22.788;2023-11-19T15:56:37;4.75;;;3.13;;
12212;SDS011;6169;44.158;22.788;2023-11-19T16:01:39;6.00;;;4.20;;
12212;SDS011;6169;44.158;22.788;2023-11-19T16:06:42;3.72;;;2.78;;
12212;SDS011;6169;44.158;22.788;2023-11-19T16:11:46;3.42;;;3.03;;
12212;SDS011;6169;44.158;22.788;2023-11-19T16:16:48;3.47;;;2.22;;
12212;SDS011;6169;44.158;22.788;2023-11-19T16:21:51;4.38;;;2.83;;
12212;SDS011;6169;44.158;22.788;2023-11-19T16:26:54;5.72;;;3.95;;
12212;SDS011;6169;44.158;22.788;2023-11-19T16:31:57;6.85;;;4.50;;
12212;SDS011;6169;44.158;22.788;2023-11-19T16:36:59;7.25;;;5.10;;
12212;SDS011;6169;44.158;22.788;2023-11-19T16:42:03;6.95;;;4.35;;
12212;SDS011;6169;44.158;22.788;2023-11-19T16:47:06;6.05;;;3.33;;
12212;SDS011;6169;44.158;22.788;2023-11-19T16:52:09;3.35;;;3.03;;
12212;SDS011;6169;44.158;22.788;2023-11-19T16:57:13;3.35;;;2.55;;
12212;SDS011;6169;44.158;22.788;2023-11-19T17:02:16;10.13;;;7.78;;
12212;SDS011;6169;44.158;22.788;2023-11-19T17:07:19;25.92;;;23.23;;
12212;SDS011;6169;44.158;22.788;2023-11-19T17:12:23;6.00;;;5.18;;
12212;SDS011;6169;44.158;22.788;2023-11-19T17:17:25;12.20;;;8.30;;
12212;SDS011;6169;44.158;22.788;2023-11-19T17:22:33;23.35;;;15.60;;
12212;SDS011;6169;44.158;22.788;2023-11-19T17:27:39;9.63;;;6.50;;
12212;SDS011;6169;44.158;22.788;2023-11-19T17:32:43;8.15;;;4.78;;
12212;SDS011;6169;44.158;22.788;2023-11-19T17:37:46;9.25;;;7.55;;
12212;SDS011;6169;44.158;22.788;2023-11-19T17:42:50;13.63;;;8.63;;
12212;SDS011;6169;44.158;22.788;2023-11-19T17:47:52;9.32;;;5.90;;
12212;SDS011;6169;44.158;22.788;2023-11-19T17:52:55;17.42;;;8.27;;
12212;SDS011;6169;44.158;22.788;2023-11-19T17:58:00;37.38;;;20.42;;
12212;SDS011;6169;44.158;22.788;2023-11-19T18:03:02;18.00;;;9.57;;
12212;SDS011;6169;44.158;22.788;2023-11-19T18:08:05;33.72;;;29.23;;
12212;SDS011;6169;44.158;22.788;2023-11-19T18:13:10;14.45;;;8.15;;
12212;SDS011;6169;44.158;22.788;2023-11-19T18:18:13;11.00;;;6.43;;
12212;SDS011;6169;44.158;22.788;2023-11-19T18:23:15;10.50;;;5.72;;
12212;SDS011;6169;44.158;22.788;2023-11-19T18:28:19;20.70;;;8.10;;
12212;SDS011;6169;44.158;22.788;2023-11-19T18:33:24;33.10;;;16.98;;
12212;SDS011;6169;44.158;22.788;2023-11-19T18:38:27;45.97;;;30.27;;
12212;SDS011;6169;44.158;22.788;2023-11-19T18:43:31;17.40;;;8.45;;
12212;SDS011;6169;44.158;22.788;2023-11-19T18:48:33;10.80;;;7.85;;
12212;SDS011;6169;44.158;22.788;2023-11-19T18:53:36;9.63;;;6.15;;
12212;SDS011;6169;44.158;22.788;2023-11-19T18:58:40;9.63;;;5.70;;
12212;SDS011;6169;44.158;22.788;2023-11-19T19:03:43;10.35;;;6.85;;
12212;SDS011;6169;44.158;22.788;2023-11-19T19:08:45;13.75;;;8.13;;
12212;SDS011;6169;44.158;22.788;2023-11-19T19:13:51;10.07;;;6.40;;
12212;SDS011;6169;44.158;22.788;2023-11-19T19:18:54;16.63;;;9.53;;
12212;SDS011;6169;44.158;22.788;2023-11-19T19:23:56;13.03;;;7.00;;
12212;SDS011;6169;44.158;22.788;2023-11-19T19:29:04;14.53;;;8.90;;
12212;SDS011;6169;44.158;22.788;2023-11-19T19:34:07;21.10;;;11.90;;
12212;SDS011;6169;44.158;22.788;2023-11-19T19:39:09;14.30;;;6.80;;
12212;SDS011;6169;44.158;22.788;2023-11-19T19:44:16;9.87;;;5.83;;
12212;SDS011;6169;44.158;22.788;2023-11-19T19:49:20;8.43;;;5.72;;
12212;SDS011;6169;44.158;22.788;2023-11-19T19:54:22;9.20;;;6.33;;
12212;SDS011;6169;44.158;22.788;2023-11-19T19:59:27;10.07;;;6.40;;
12212;SDS011;6169;44.158;22.788;2023-11-19T20:04:29;8.93;;;5.23;;
12212;SDS011;6169;44.158;22.788;2023-11-19T20:09:32;8.93;;;5.77;;
12212;SDS011;6169;44.158;22.788;2023-11-19T20:14:36;5.83;;;4.10;;
12212;SDS011;6169;44.158;22.788;2023-11-19T20:19:39;9.70;;;4.37;;
12212;SDS011;6169;44.158;22.788;2023-11-19T20:24:42;7.03;;;4.73;;
12212;SDS011;6169;44.158;22.788;2023-11-19T20:29:46;7.30;;;4.97;;
12212;SDS011;6169;44.158;22.788;2023-11-19T20:34:48;7.73;;;6.20;;
12212;SDS011;6169;44.158;22.788;2023-11-19T20:39:51;8.00;;;4.70;;
12212;SDS011;6169;44.158;22.788;2023-11-19T20:44:55;6.87;;;4.73;;
12212;SDS011;6169;44.158;22.788;2023-11-19T20:49:58;9.70;;;6.23;;
12212;SDS011;6169;44.158;22.788;2023-11-19T20:55:00;6.93;;;4.50;;
12212;SDS011;6169;44.158;22.788;2023-11-19T21:00:06;42.47;;;22.37;;
12212;SDS011;6169;44.158;22.788;2023-11-19T21:05:12;13.80;;;8.57;;
12212;SDS011;6169;44.158;22.788;2023-11-19T21:10:15;9.17;;;6.10;;
12212;SDS011;6169;44.158;22.788;2023-11-19T21:15:19;12.33;;;7.27;;
12212;SDS011;6169;44.158;22.788;2023-11-19T21:20:22;8.17;;;5.80;;
12212;SDS011;6169;44.158;22.788;2023-11-19T21:25:25;10.73;;;5.00;;
12212;SDS011;6169;44.158;22.788;2023-11-19T21:30:29;8.63;;;5.13;;
12212;SDS011;6169;44.158;22.788;2023-11-19T21:35:31;14.03;;;8.83;;
12212;SDS011;6169;44.158;22.788;2023-11-19T21:40:34;31.57;;;17.30;;
12212;SDS011;6169;44.158;22.788;2023-11-19T21:45:38;21.67;;;10.77;;
12212;SDS011;6169;44.158;22.788;2023-11-19T21:50:40;20.50;;;14.40;;
12212;SDS011;6169;44.158;22.788;2023-11-19T21:55:43;13.77;;;9.20;;
12212;SDS011;6169;44.158;22.788;2023-11-19T22:00:47;7.43;;;5.20;;
12212;SDS011;6169;44.158;22.788;2023-11-19T22:05:50;5.60;;;4.70;;
12212;SDS011;6169;44.158;22.788;2023-11-19T22:10:52;8.10;;;5.07;;
12212;SDS011;6169;44.158;22.788;2023-11-19T22:15:56;7.50;;;4.77;;
12212;SDS011;6169;44.158;22.788;2023-11-19T22:20:59;6.97;;;4.47;;
12212;SDS011;6169;44.158;22.788;2023-11-19T22:26:02;6.13;;;4.40;;
12212;SDS011;6169;44.158;22.788;2023-11-19T22:31:06;4.90;;;3.27;;
12212;SDS011;6169;44.158;22.788;2023-11-19T22:36:09;3.40;;;2.70;;
12212;SDS011;6169;44.158;22.788;2023-11-19T22:41:11;4.50;;;2.87;;
12212;SDS011;6169;44.158;22.788;2023-11-19T22:46:15;6.73;;;3.33;;
12212;SDS011;6169;44.158;22.788;2023-11-19T22:51:19;8.67;;;4.23;;
12212;SDS011;6169;44.158;22.788;2023-11-19T22:56:21;4.20;;;3.27;;
12212;SDS011;6169;44.158;22.788;2023-11-19T23:01:25;6.97;;;3.73;;
12212;SDS011;6169;44.158;22.788;2023-11-19T23:06:27;5.07;;;3.53;;
12212;SDS011;6169;44.158;22.788;2023-11-19T23:11:30;14.00;;;5.70;;
12212;SDS011;6169;44.158;22.788;2023-11-19T23:16:37;6.53;;;4.00;;
12212;SDS011;6169;44.158;22.788;2023-11-19T23:21:40;6.60;;;3.30;;
12212;SDS011;6169;44.158;22.788;2023-11-19T23:26:44;5.00;;;3.43;;
12212;SDS011;6169;44.158;22.788;2023-11-19T23:31:48;4.47;;;3.03;;
12212;SDS011;6169;44.158;22.788;2023-11-19T23:36:50;6.70;;;3.77;;
12212;SDS011;6169;44.158;22.788;2023-11-19T23:41:52;8.37;;;4.93;;
12212;SDS011;6169;44.158;22.788;2023-11-19T23:46:57;5.20;;;3.10;;
12212;SDS011;6169;44.158;22.788;2023-11-19T23:51:59;4.93;;;3.27;;
12212;SDS011;6169;44.158;22.788;2023-11-19T23:57:04;5.60;;;3.63;;
